createdAt,value
2022-09-28T06:00:47.979Z,99584.22
2022-09-28T06:03:18.761Z,99582.47
2022-09-28T06:05:47.615Z,99588.47
2022-09-28T06:08:16.907Z,99582.34
2022-09-28T06:10:49.690Z,99588.38
2022-09-28T06:13:16.625Z,99583.06
2022-09-28T06:15:47.168Z,99588.38
2022-09-28T06:18:14.988Z,99590.19
2022-09-28T06:20:42.985Z,99593.00
2022-09-28T06:23:15.051Z,99594.88
2022-09-28T06:25:44.048Z,99597.53
2022-09-28T06:28:14.785Z,99596.81
2022-09-28T06:30:50.990Z,99592.66
2022-09-28T06:33:18.432Z,99591.91
2022-09-28T06:35:50.315Z,99598.94
2022-09-28T06:38:20.490Z,99598.25
2022-09-28T06:40:47.388Z,99595.84
2022-09-28T06:43:16.293Z,99601.19
2022-09-28T06:45:46.439Z,99597.88
2022-09-28T06:48:13.873Z,99597.13
2022-09-28T06:50:41.180Z,99608.44
2022-09-28T06:53:10.543Z,99614.59
2022-09-28T06:55:41.567Z,99610.41
2022-09-28T06:58:14.353Z,99614.03
2022-09-28T07:00:41.616Z,99618.53
2022-09-28T07:03:11.721Z,99616.97
2022-09-28T07:05:42.166Z,99611.03
2022-09-28T07:08:09.746Z,99607.66
2022-09-28T07:10:42.929Z,99616.41
2022-09-28T07:13:28.654Z,99624.44
2022-09-28T07:16:02.346Z,99630.69
2022-09-28T07:18:32.261Z,99635.13
2022-09-28T07:20:59.510Z,99646.53
2022-09-28T07:23:30.231Z,99638.84
2022-09-28T07:26:03.607Z,99640.00
2022-09-28T07:28:32.231Z,99650.66
2022-09-28T07:30:59.189Z,99642.97
2022-09-28T07:33:28.067Z,99635.34
2022-09-28T07:35:58.320Z,99649.06
2022-09-28T07:38:27.180Z,99638.69
2022-09-28T07:41:11.327Z,99648.66
2022-09-28T07:43:39.788Z,99645.03
2022-09-28T07:46:09.456Z,99635.78
2022-09-28T07:48:36.973Z,99648.66
2022-09-28T07:51:04.425Z,99658.91
2022-09-28T07:53:31.652Z,99647.72
2022-09-28T07:56:08.689Z,99647.47
2022-09-28T07:58:38.026Z,99652.28
2022-09-28T08:01:07.193Z,99651.91
2022-09-28T08:03:35.488Z,99657.03
2022-09-28T08:06:11.368Z,99652.22
2022-09-28T08:08:39.110Z,99664.22
2022-09-28T08:11:10.540Z,99666.94
2022-09-28T08:13:38.599Z,99661.56
2022-09-28T08:16:08.318Z,99668.22
2022-09-28T08:18:36.603Z,99667.50
2022-09-28T08:21:23.443Z,99668.88
2022-09-28T08:23:50.323Z,99669.38
2022-09-28T08:26:19.236Z,99675.59
2022-09-28T08:28:48.552Z,99676.09
2022-09-28T08:31:16.270Z,99668.69
2022-09-28T08:33:43.351Z,99675.44
2022-09-28T08:36:11.122Z,99686.47
2022-09-28T08:38:38.207Z,99683.75
2022-09-28T08:41:05.201Z,99685.97
2022-09-28T08:43:48.370Z,99682.03
2022-09-28T08:46:22.773Z,99683.16
2022-09-28T08:49:23.615Z,99688.88
2022-09-28T08:52:13.892Z,99685.53
2022-09-28T08:54:58.437Z,99697.91
2022-09-28T08:57:34.740Z,99690.41
2022-09-28T09:00:06.128Z,99702.31
2022-09-28T09:02:39.962Z,99692.97
2022-09-28T09:05:15.668Z,99701.44
2022-09-28T09:08:05.476Z,99699.34
2022-09-28T09:11:20.527Z,99706.81
2022-09-28T09:14:29.197Z,99709.84
2022-09-28T09:17:14.173Z,99710.22
2022-09-28T09:20:00.464Z,99709.34
2022-09-28T09:22:55.600Z,99716.97
2022-09-28T09:25:42.508Z,99709.84
2022-09-28T09:28:33.243Z,99715.75
2022-09-28T09:31:20.773Z,99728.25
2022-09-28T09:34:11.155Z,99715.88
2022-09-28T09:37:08.927Z,99726.78
2022-09-28T09:40:04.629Z,99725.81
2022-09-28T09:42:39.110Z,99719.72
2022-09-28T09:45:16.675Z,99729.94
2022-09-28T09:47:52.382Z,99726.34
2022-09-28T09:50:48.772Z,99728.72
2022-09-28T09:53:38.617Z,99725.78
2022-09-28T09:56:16.891Z,99727.22
2022-09-28T09:58:57.779Z,99731.13
2022-09-28T10:01:36.137Z,99729.56
2022-09-28T10:04:06.495Z,99731.97
2022-09-28T10:06:39.702Z,99724.00
2022-09-28T10:09:16.714Z,99725.22
2022-09-28T10:11:52.033Z,99727.91
2022-09-28T10:14:22.731Z,99727.28
2022-09-28T10:16:51.891Z,99723.63
2022-09-28T10:19:22.195Z,99724.72
2022-09-28T10:21:58.521Z,99731.09
2022-09-28T10:24:39.360Z,99726.69
2022-09-28T10:27:11.478Z,99730.72
2022-09-28T10:29:47.658Z,99725.00
2022-09-28T10:32:25.274Z,99729.09
2022-09-28T10:34:53.326Z,99725.97
2022-09-28T10:37:20.613Z,99725.16
2022-09-28T10:39:53.597Z,99731.41
2022-09-28T10:42:32.399Z,99725.56
2022-09-28T10:45:22.521Z,99726.91
2022-09-28T10:47:50.149Z,99736.38
2022-09-28T10:50:25.122Z,99726.88
2022-09-28T10:52:52.038Z,99726.81
2022-09-28T10:55:21.976Z,99735.53
2022-09-28T10:57:48.687Z,99737.16
2022-09-28T11:00:29.645Z,99733.88
2022-09-28T11:02:57.907Z,99723.84
2022-09-28T11:05:30.325Z,99716.91
2022-09-28T11:08:06.641Z,99731.41
2022-09-28T11:10:33.982Z,99719.66
2022-09-28T11:13:02.659Z,99716.28
2022-09-28T11:15:33.191Z,99731.69
2022-09-28T11:18:32.660Z,99718.94
2022-09-28T11:21:21.343Z,99713.47
2022-09-28T11:24:19.272Z,99715.03
2022-09-28T11:26:50.094Z,99728.09
2022-09-28T11:29:22.759Z,99725.25
2022-09-28T11:31:50.071Z,99721.63
2022-09-28T11:34:31.472Z,99726.91
2022-09-28T11:37:39.943Z,99721.31
2022-09-28T11:40:34.117Z,99722.25
2022-09-28T11:43:36.365Z,99716.31
2022-09-28T11:46:43.575Z,99714.53
2022-09-28T11:49:28.027Z,99717.81
2022-09-28T11:51:59.782Z,99717.97
2022-09-28T11:54:39.763Z,99718.44
2022-09-28T11:57:17.218Z,99722.53
2022-09-28T12:00:01.873Z,99718.78
2022-09-28T12:02:38.242Z,99710.91
2022-09-28T12:05:22.387Z,99710.69
2022-09-28T12:07:55.003Z,99721.78
2022-09-28T12:10:51.518Z,99724.88
2022-09-28T12:13:22.856Z,99718.72
2022-09-28T12:18:52.802Z,99725.00
2022-09-28T12:21:25.549Z,99721.97
2022-09-28T12:23:57.000Z,99726.66
2022-09-28T12:26:38.731Z,99729.44
2022-09-28T12:29:13.045Z,99725.41
2022-09-28T12:32:05.670Z,99733.84
2022-09-28T12:34:32.190Z,99726.47
2022-09-28T12:37:11.075Z,99733.00
2022-09-28T12:40:23.457Z,99738.72
2022-09-28T12:43:12.954Z,99746.25
2022-09-28T12:46:31.604Z,99751.13
2022-09-28T12:50:20.149Z,99761.13
2022-09-28T12:52:29.874Z,99759.72
2022-09-28T12:55:35.268Z,99762.59
2022-09-28T12:58:48.255Z,99750.59
2022-09-28T13:01:36.034Z,99755.13
2022-09-28T13:04:18.223Z,99756.97
2022-09-28T13:06:57.426Z,99752.72
2022-09-28T13:09:28.948Z,99742.28
2022-09-28T13:12:34.668Z,99744.06
2022-09-28T13:15:22.605Z,99742.34
2022-09-28T13:18:14.846Z,99739.78
2022-09-28T13:20:47.597Z,99743.31
2022-09-28T13:23:25.732Z,99745.03
2022-09-28T13:26:05.071Z,99745.94
2022-09-28T13:28:32.834Z,99745.09
2022-09-28T13:31:02.231Z,99761.69
2022-09-28T13:33:38.755Z,99765.19
2022-09-28T13:36:33.404Z,99771.25
2022-09-28T13:39:00.806Z,99767.81
2022-09-28T13:41:39.765Z,99773.88
2022-09-28T13:44:21.299Z,99762.53
2022-09-28T13:46:48.028Z,99770.38
2022-09-28T13:49:42.366Z,99776.44
2022-09-28T13:52:15.702Z,99769.41
2022-09-28T13:55:09.969Z,99759.75
2022-09-28T13:57:50.265Z,99764.91
2022-09-28T14:00:26.261Z,99754.31
2022-09-28T14:03:16.717Z,99757.59
2022-09-28T14:06:11.101Z,99754.78
2022-09-28T14:09:18.841Z,99744.16
2022-09-28T14:12:00.084Z,99752.84
2022-09-28T14:14:50.171Z,99745.88
2022-09-28T14:17:19.663Z,99761.63
2022-09-28T14:19:52.280Z,99758.06
2022-09-28T14:22:25.394Z,99756.28
2022-09-28T14:25:19.578Z,99760.59
2022-09-28T14:28:24.756Z,99761.47
2022-09-28T14:30:54.427Z,99757.97
2022-09-28T14:33:20.940Z,99762.34
2022-09-28T14:36:04.899Z,99771.16
2022-09-28T14:38:53.320Z,99772.06
2022-09-28T14:41:34.499Z,99773.84
2022-09-28T14:44:04.417Z,99775.69
2022-09-28T14:46:36.999Z,99774.03
2022-09-28T14:49:26.588Z,99773.28
2022-09-28T14:51:53.735Z,99775.03
2022-09-28T14:54:26.570Z,99776.00
2022-09-28T14:56:53.025Z,99774.31
2022-09-28T14:59:25.355Z,99777.84
2022-09-28T15:02:05.743Z,99770.03
2022-09-28T15:04:37.060Z,99780.53
2022-09-28T15:07:04.280Z,99794.53
2022-09-28T15:09:32.614Z,99798.94
2022-09-28T15:12:13.240Z,99799.81
2022-09-28T15:14:53.454Z,99798.94
2022-09-28T15:17:23.395Z,99795.50
2022-09-28T15:19:58.296Z,99803.38
2022-09-28T15:22:25.211Z,99805.13
2022-09-28T15:25:03.195Z,99807.78
2022-09-28T15:27:37.906Z,99808.66
2022-09-28T15:30:36.606Z,99804.31
2022-09-28T15:33:23.589Z,99800.81
2022-09-28T15:36:06.698Z,99810.41
2022-09-28T15:38:35.321Z,99813.00
2022-09-28T15:41:07.337Z,99808.66
2022-09-28T15:43:34.625Z,99818.28
2022-09-28T15:46:07.258Z,99811.31
2022-09-28T15:48:52.136Z,99812.22
2022-09-28T15:51:21.405Z,99810.44
2022-09-28T15:54:09.204Z,99807.00
2022-09-28T15:56:51.151Z,99810.50
2022-09-28T15:59:55.833Z,99807.88
2022-09-28T16:02:26.591Z,99816.59
2022-09-28T16:04:55.490Z,99818.34
2022-09-28T16:07:41.462Z,99804.38
2022-09-28T16:10:14.333Z,99814.84
2022-09-28T16:12:46.644Z,99806.16
2022-09-28T16:15:20.590Z,99817.44
2022-09-28T16:18:12.314Z,99817.44
2022-09-28T16:20:40.603Z,99813.94
2022-09-28T16:23:16.268Z,99813.94
2022-09-28T16:25:59.222Z,99812.19
2022-09-28T16:28:36.154Z,99812.19
2022-09-28T16:31:20.423Z,99813.97
2022-09-28T16:33:57.812Z,99816.56
2022-09-28T16:36:27.714Z,99817.44
2022-09-28T16:38:55.305Z,99816.56
2022-09-28T16:41:26.294Z,99830.53
2022-09-28T16:44:02.679Z,99827.91
2022-09-28T16:46:37.338Z,99827.06
2022-09-28T16:49:15.297Z,99827.09
2022-09-28T16:51:42.185Z,99826.22
2022-09-28T16:54:51.739Z,99825.38
2022-09-28T16:57:21.461Z,99832.34
2022-09-28T16:59:48.139Z,99834.97
2022-09-28T17:05:12.889Z,99841.94
2022-09-28T17:07:48.612Z,99842.84
2022-09-28T17:10:29.201Z,99848.06
2022-09-28T17:12:56.265Z,99861.97
2022-09-28T17:15:26.112Z,99858.50
2022-09-28T17:17:52.715Z,99857.56
2022-09-28T17:20:25.870Z,99863.63
2022-09-28T17:22:56.941Z,99861.00
2022-09-28T17:25:27.717Z,99857.50
2022-09-28T17:27:57.219Z,99856.59
2022-09-28T17:30:26.004Z,99866.16
2022-09-28T17:32:52.688Z,99861.78
2022-09-28T17:35:24.635Z,99864.41
2022-09-28T17:37:53.444Z,99873.09
2022-09-28T17:40:26.725Z,99869.56
2022-09-28T17:42:55.429Z,99873.94
2022-09-28T17:45:28.186Z,99867.75
2022-09-28T17:47:56.207Z,99879.91
2022-09-28T17:50:32.869Z,99875.50
2022-09-28T17:53:03.131Z,99875.47
2022-09-28T17:55:33.769Z,99869.38
2022-09-28T17:58:02.244Z,99871.13
2022-09-28T18:00:29.145Z,99868.50
2022-09-28T18:02:56.998Z,99871.09
2022-09-28T18:05:25.190Z,99870.22
2022-09-28T18:07:52.378Z,99878.00
2022-09-28T18:10:26.433Z,99875.38
2022-09-28T18:12:52.939Z,99865.75
2022-09-28T18:15:19.521Z,99869.19
2022-09-28T18:17:48.002Z,99877.00
2022-09-28T18:20:15.523Z,99871.72
2022-09-28T18:22:46.303Z,99882.16
2022-09-28T18:25:12.872Z,99874.31
2022-09-28T18:27:39.485Z,99880.38
2022-09-28T18:30:07.501Z,99876.81
2022-09-28T18:32:37.115Z,99882.00
2022-09-28T18:35:09.056Z,99885.47
2022-09-28T18:37:40.205Z,99875.84
2022-09-28T18:40:09.043Z,99881.91
2022-09-28T18:42:36.626Z,99878.34
2022-09-28T18:45:10.956Z,99885.28
2022-09-28T18:47:43.405Z,99881.69
2022-09-28T18:50:12.361Z,99881.56
2022-09-28T18:52:40.220Z,99884.13
2022-09-28T18:55:09.059Z,99886.75
2022-09-28T18:57:36.183Z,99888.44
2022-09-28T19:00:05.801Z,99888.47
2022-09-28T19:02:32.510Z,99882.41
2022-09-28T19:04:59.129Z,99888.53
2022-09-28T19:07:28.886Z,99881.56
2022-09-28T19:09:56.859Z,99878.06
2022-09-28T19:12:24.495Z,99881.50
2022-09-28T19:14:51.310Z,99885.84
2022-09-28T19:17:18.189Z,99884.97
2022-09-28T19:19:48.804Z,99886.63
2022-09-28T19:22:19.682Z,99885.75
2022-09-28T19:24:51.302Z,99884.00
2022-09-28T19:27:20.615Z,99884.84
2022-09-28T19:29:47.541Z,99890.03
2022-09-28T19:32:15.345Z,99898.69
2022-09-28T19:34:41.879Z,99898.69
2022-09-28T19:37:09.002Z,99893.44
2022-09-28T19:39:35.697Z,99896.03
2022-09-28T19:42:05.009Z,99900.28
2022-09-28T19:44:33.645Z,99905.47
2022-09-28T19:47:09.861Z,99906.28
2022-09-28T19:49:39.321Z,99908.88
2022-09-28T19:52:19.179Z,99916.69
2022-09-28T19:54:58.438Z,99914.84
2022-09-28T19:57:28.019Z,99905.28
2022-09-28T20:00:00.814Z,99908.66
2022-09-28T20:02:30.081Z,99919.06
2022-09-28T20:04:57.935Z,99910.41
2022-09-28T20:07:24.505Z,99915.53
2022-09-28T20:09:51.718Z,99915.53
2022-09-28T20:12:18.570Z,99925.91
2022-09-28T20:14:45.134Z,99918.97
2022-09-28T20:17:11.920Z,99921.50
2022-09-28T20:19:40.622Z,99928.41
2022-09-28T20:22:07.564Z,99931.00
2022-09-28T20:24:34.854Z,99924.03
2022-09-28T20:27:01.841Z,99926.59
2022-09-28T20:29:29.251Z,99931.75
2022-09-28T20:31:56.770Z,99927.34
2022-09-28T20:34:26.086Z,99923.81
2022-09-28T20:36:53.031Z,99929.00
2022-09-28T20:39:20.696Z,99931.53
2022-09-28T20:41:49.345Z,99932.31
2022-09-28T20:44:16.129Z,99932.28
2022-09-28T20:46:44.428Z,99930.47
2022-09-28T20:49:10.996Z,99931.28
2022-09-28T20:51:37.647Z,99936.44
2022-09-28T20:54:05.327Z,99934.66
2022-09-28T20:56:38.167Z,99929.38
2022-09-28T20:59:07.726Z,99921.47
2022-09-28T21:01:35.004Z,99936.16
2022-09-28T21:04:03.727Z,99937.03
2022-09-28T21:06:35.415Z,99935.31
2022-09-28T21:09:03.041Z,99935.31
2022-09-28T21:11:30.788Z,99938.75
2022-09-28T21:14:00.324Z,99935.31
2022-09-28T21:16:29.570Z,99947.41
2022-09-28T21:18:56.218Z,99952.53
2022-09-28T21:21:24.325Z,99942.13
2022-09-28T21:23:57.396Z,99944.75
2022-09-28T21:26:26.729Z,99951.72
2022-09-28T21:29:00.525Z,99947.38
2022-09-28T21:31:30.541Z,99953.38
2022-09-28T21:33:58.447Z,99954.28
2022-09-28T21:36:26.125Z,99954.25
2022-09-28T21:38:54.285Z,99952.47
2022-09-28T21:41:21.399Z,99955.00
2022-09-28T21:43:48.173Z,99952.38
2022-09-28T21:46:15.259Z,99957.56
2022-09-28T21:48:44.171Z,99964.47
2022-09-28T21:51:14.731Z,99975.66
2022-09-28T21:53:44.315Z,99971.28
2022-09-28T21:56:15.463Z,99968.66
2022-09-28T21:58:42.741Z,99968.63
2022-09-28T22:01:13.475Z,99968.56
2022-09-28T22:03:41.658Z,99961.53
2022-09-28T22:06:11.868Z,99960.69
2022-09-28T22:08:39.388Z,99958.88
2022-09-28T22:11:09.494Z,99966.66
2022-09-28T22:13:40.748Z,99970.13
2022-09-28T22:16:08.353Z,99963.19
2022-09-28T22:18:35.342Z,99970.13
2022-09-28T22:21:08.938Z,99969.19
2022-09-28T22:23:40.802Z,99972.66
2022-09-28T22:26:17.880Z,99974.31
2022-09-28T22:28:50.953Z,99979.50
2022-09-28T22:31:19.146Z,99976.09
2022-09-28T22:33:45.904Z,99982.16
2022-09-28T22:36:14.980Z,99979.63
2022-09-28T22:38:42.150Z,99982.19
2022-09-28T22:41:09.474Z,99985.63
2022-09-28T22:43:35.945Z,99989.88
2022-09-28T22:46:13.910Z,99991.44
2022-09-28T22:48:42.284Z,99983.59
2022-09-28T22:51:11.795Z,99986.97
2022-09-28T22:53:38.896Z,99992.19
2022-09-28T22:56:08.897Z,99984.41
2022-09-28T22:58:37.601Z,99986.19
2022-09-28T23:01:13.005Z,99984.38
2022-09-28T23:03:44.987Z,99984.38
2022-09-28T23:06:14.550Z,99984.34
2022-09-28T23:08:44.751Z,99985.16
2022-09-28T23:11:14.165Z,99985.09
2022-09-28T23:13:42.680Z,99974.66
2022-09-28T23:16:12.846Z,99985.88
2022-09-28T23:18:41.153Z,99990.88
2022-09-28T23:21:10.863Z,99986.38
2022-09-28T23:23:37.782Z,99994.91
2022-09-28T23:26:16.677Z,99993.94
2022-09-28T23:28:44.343Z,99994.78
2022-09-28T23:31:23.468Z,99997.38
2022-09-28T23:33:51.096Z,99993.88
2022-09-28T23:36:17.895Z,99991.19
2022-09-28T23:38:45.405Z,99994.59
2022-09-28T23:41:12.047Z,99995.41
2022-09-28T23:43:39.645Z,100003.13
2022-09-28T23:46:06.559Z,99992.72
2022-09-28T23:48:33.766Z,100005.66
2022-09-28T23:51:01.096Z,100003.03
2022-09-28T23:53:28.167Z,99996.88
2022-09-28T23:55:54.888Z,99993.41
2022-09-28T23:58:21.684Z,100001.97
